This is the latest recevied weather packets stored in our database for station/object W1RCY. If no packets are shown the sender has not sent any weather packets the latest 1 day(s).
| Time | Temp. | Humidity | Pressure | Rain* | Wind** | Luminosity | Snow |
|---|---|---|---|---|---|---|---|
| 1778093495 | 15.56° C | 98% | 1005.4 hPa | 3.05 mm | - | 70 W/m² | - |
| 1778092890 | 16.11° C | 96% | 1005.3 hPa | 3.05 mm | - | 57 W/m² | - |
| 1778091677 | 16.67° C | 95% | 1005.6 hPa | 1.27 mm | - | 78 W/m² | - |
| 1778091375 | 16.67° C | 93% | 1005.5 hPa | 3.05 mm | - | 68 W/m² | - |
| 1778091072 | 16.67° C | 91% | 1005.6 hPa | 1.78 mm | - | 68 W/m² | - |
| 1778090465 | 17.78° C | 86% | 1005.2 hPa | 1.27 mm | - | 52 W/m² | - |
| 1778089252 | 20° C | 73% | 1004.8 hPa | 0 mm | - | 33 W/m² | - |
| 1778088040 | 20.56° C | 69% | 1004.8 hPa | 0 mm | - | 112 W/m² | - |
| 1778085915 | 20.56° C | 71% | 1005.3 hPa | 0 mm | - | 206 W/m² | - |
| 1778085613 | 20° C | 71% | 1005.2 hPa | 0 mm | - | 253 W/m² | - |
| 1778084701 | 20° C | 73% | 1006 hPa | 0 mm | - | 208 W/m² | - |
| 1778084398 | 20° C | 74% | 1006 hPa | 0 mm | - | 195 W/m² | - |
| 1778083490 | 19.44° C | 74% | 1006.5 hPa | 0 mm | - | 183 W/m² | - |
| 1778083187 | 19.44° C | 75% | 1006.6 hPa | 0 mm | - | 185 W/m² | - |
| 1778080258 | 19.44° C | 76% | 1006.7 hPa | 0 mm | - | 165 W/m² | - |
| 1778079046 | 18.89° C | 77% | 1006.9 hPa | 0 mm | - | 252 W/m² | - |
| 1778077533 | 17.78° C | 80% | 1006.9 hPa | 0 mm | - | 185 W/m² | - |
| 1778076021 | 17.78° C | 80% | 1007 hPa | 0 mm | - | 173 W/m² | - |
| 1778075718 | 17.78° C | 81% | 1007.1 hPa | 0 mm | - | 162 W/m² | - |
| 1778075110 | 17.22° C | 81% | 1006.9 hPa | 0 mm | - | 166 W/m² | - |
| 1778074504 | 17.22° C | 82% | 1007.3 hPa | 0 mm | - | 129 W/m² | - |
| 1778073595 | 16.67° C | 82% | 1007.1 hPa | 0 mm | - | 111 W/m² | - |
| 1778072685 | 16.67° C | 83% | 1007.1 hPa | 0 mm | - | 88 W/m² | - |
| 1778072081 | 16.67° C | 83% | 1007.2 hPa | 0 mm | - | 148 W/m² | - |
| 1778071476 | 16.11° C | 83% | 1007.2 hPa | 0 mm | - | 135 W/m² | - |
* Rain latest hour (hover to see other rain measurements)
** Current wind speed in m/s (hover to see current wind gust speed)